sensor_id;sensor_type;location;lat;lon;timestamp;temperature;humidity
20288;DHT22;10303;51.960;8.372;2024-02-26T00:00:39;6.80;99.90
20288;DHT22;10303;51.960;8.372;2024-02-26T00:03:06;6.90;99.90
20288;DHT22;10303;51.960;8.372;2024-02-26T00:05:32;6.80;99.90
20288;DHT22;10303;51.960;8.372;2024-02-26T00:07:58;6.80;99.90
20288;DHT22;10303;51.960;8.372;2024-02-26T00:10:23;6.80;99.90
20288;DHT22;10303;51.960;8.372;2024-02-26T00:12:49;6.80;99.90
20288;DHT22;10303;51.960;8.372;2024-02-26T00:15:16;6.80;99.90
20288;DHT22;10303;51.960;8.372;2024-02-26T00:17:41;6.80;99.90
20288;DHT22;10303;51.960;8.372;2024-02-26T00:20:08;6.80;99.90
20288;DHT22;10303;51.960;8.372;2024-02-26T00:22:36;6.80;99.90
20288;DHT22;10303;51.960;8.372;2024-02-26T00:25:04;6.90;99.90
20288;DHT22;10303;51.960;8.372;2024-02-26T00:27:30;6.80;99.90
20288;DHT22;10303;51.960;8.372;2024-02-26T00:29:56;6.80;99.90
20288;DHT22;10303;51.960;8.372;2024-02-26T00:32:21;6.70;99.90
20288;DHT22;10303;51.960;8.372;2024-02-26T00:34:47;6.70;99.90
20288;DHT22;10303;51.960;8.372;2024-02-26T00:37:13;6.80;99.90
20288;DHT22;10303;51.960;8.372;2024-02-26T00:39:39;6.80;99.90
20288;DHT22;10303;51.960;8.372;2024-02-26T00:42:05;6.70;99.90
20288;DHT22;10303;51.960;8.372;2024-02-26T00:44:31;6.70;99.90
20288;DHT22;10303;51.960;8.372;2024-02-26T00:46:57;6.80;99.90
20288;DHT22;10303;51.960;8.372;2024-02-26T00:49:23;7.00;99.90
20288;DHT22;10303;51.960;8.372;2024-02-26T00:51:49;6.80;99.90
20288;DHT22;10303;51.960;8.372;2024-02-26T00:54:15;6.80;99.90
20288;DHT22;10303;51.960;8.372;2024-02-26T00:56:40;6.80;99.90
20288;DHT22;10303;51.960;8.372;2024-02-26T00:59:06;6.80;99.90
20288;DHT22;10303;51.960;8.372;2024-02-26T01:01:32;6.80;99.90
20288;DHT22;10303;51.960;8.372;2024-02-26T01:03:58;6.80;99.90
20288;DHT22;10303;51.960;8.372;2024-02-26T01:06:24;6.80;99.90
20288;DHT22;10303;51.960;8.372;2024-02-26T01:08:50;6.90;99.90
20288;DHT22;10303;51.960;8.372;2024-02-26T01:11:16;6.90;99.90
20288;DHT22;10303;51.960;8.372;2024-02-26T01:13:42;6.90;99.90
20288;DHT22;10303;51.960;8.372;2024-02-26T01:16:07;7.00;99.90
20288;DHT22;10303;51.960;8.372;2024-02-26T01:18:33;6.90;99.90
20288;DHT22;10303;51.960;8.372;2024-02-26T01:20:59;7.00;99.90
20288;DHT22;10303;51.960;8.372;2024-02-26T01:23:25;7.00;99.90
20288;DHT22;10303;51.960;8.372;2024-02-26T01:25:51;7.10;99.90
20288;DHT22;10303;51.960;8.372;2024-02-26T01:28:17;7.00;99.90
20288;DHT22;10303;51.960;8.372;2024-02-26T01:30:43;7.30;99.90
20288;DHT22;10303;51.960;8.372;2024-02-26T01:33:09;7.10;99.90
20288;DHT22;10303;51.960;8.372;2024-02-26T01:35:34;7.10;99.90
20288;DHT22;10303;51.960;8.372;2024-02-26T01:38:00;7.10;99.90
20288;DHT22;10303;51.960;8.372;2024-02-26T01:40:27;7.40;99.90
20288;DHT22;10303;51.960;8.372;2024-02-26T01:42:53;7.20;99.90
20288;DHT22;10303;51.960;8.372;2024-02-26T01:45:19;7.20;99.90
20288;DHT22;10303;51.960;8.372;2024-02-26T01:47:51;7.20;99.90
20288;DHT22;10303;51.960;8.372;2024-02-26T01:50:21;7.20;99.90
20288;DHT22;10303;51.960;8.372;2024-02-26T01:52:49;7.30;99.90
20288;DHT22;10303;51.960;8.372;2024-02-26T01:55:17;7.30;99.90
20288;DHT22;10303;51.960;8.372;2024-02-26T01:57:46;7.50;99.90
20288;DHT22;10303;51.960;8.372;2024-02-26T02:00:14;7.40;99.90
20288;DHT22;10303;51.960;8.372;2024-02-26T02:02:42;7.40;99.90
20288;DHT22;10303;51.960;8.372;2024-02-26T02:05:11;7.50;99.90
20288;DHT22;10303;51.960;8.372;2024-02-26T02:07:38;7.40;99.90
20288;DHT22;10303;51.960;8.372;2024-02-26T02:10:05;7.50;99.90
20288;DHT22;10303;51.960;8.372;2024-02-26T02:12:32;7.50;99.90
20288;DHT22;10303;51.960;8.372;2024-02-26T02:15:00;7.50;99.90
20288;DHT22;10303;51.960;8.372;2024-02-26T02:17:27;7.50;99.90
20288;DHT22;10303;51.960;8.372;2024-02-26T02:19:53;7.60;99.90
20288;DHT22;10303;51.960;8.372;2024-02-26T02:22:19;7.60;99.90
20288;DHT22;10303;51.960;8.372;2024-02-26T02:24:45;7.60;99.90
20288;DHT22;10303;51.960;8.372;2024-02-26T02:27:12;7.60;99.90
20288;DHT22;10303;51.960;8.372;2024-02-26T02:29:38;7.60;99.90
20288;DHT22;10303;51.960;8.372;2024-02-26T02:32:05;7.70;99.90
20288;DHT22;10303;51.960;8.372;2024-02-26T02:34:32;7.70;99.90
20288;DHT22;10303;51.960;8.372;2024-02-26T02:36:59;7.70;99.90
20288;DHT22;10303;51.960;8.372;2024-02-26T02:39:25;7.80;99.90
20288;DHT22;10303;51.960;8.372;2024-02-26T02:41:51;7.80;99.90
20288;DHT22;10303;51.960;8.372;2024-02-26T02:44:17;8.00;99.90
20288;DHT22;10303;51.960;8.372;2024-02-26T02:46:43;7.90;99.90
20288;DHT22;10303;51.960;8.372;2024-02-26T02:49:09;7.90;99.90
20288;DHT22;10303;51.960;8.372;2024-02-26T02:51:36;7.90;99.90
20288;DHT22;10303;51.960;8.372;2024-02-26T02:54:02;8.10;99.90
20288;DHT22;10303;51.960;8.372;2024-02-26T02:56:29;7.90;99.90
20288;DHT22;10303;51.960;8.372;2024-02-26T02:58:55;8.00;99.90
20288;DHT22;10303;51.960;8.372;2024-02-26T03:01:21;8.00;99.90
20288;DHT22;10303;51.960;8.372;2024-02-26T03:03:47;8.10;99.90
20288;DHT22;10303;51.960;8.372;2024-02-26T03:06:12;8.10;99.90
20288;DHT22;10303;51.960;8.372;2024-02-26T03:08:38;8.10;99.90
20288;DHT22;10303;51.960;8.372;2024-02-26T03:11:05;8.20;99.90
20288;DHT22;10303;51.960;8.372;2024-02-26T03:13:31;8.20;99.90
20288;DHT22;10303;51.960;8.372;2024-02-26T03:15:57;8.10;99.90
20288;DHT22;10303;51.960;8.372;2024-02-26T03:18:23;8.20;99.90
20288;DHT22;10303;51.960;8.372;2024-02-26T03:20:49;8.40;99.90
20288;DHT22;10303;51.960;8.372;2024-02-26T03:23:15;8.20;99.90
20288;DHT22;10303;51.960;8.372;2024-02-26T03:25:44;8.20;99.90
20288;DHT22;10303;51.960;8.372;2024-02-26T03:28:12;8.30;99.90
20288;DHT22;10303;51.960;8.372;2024-02-26T03:30:38;8.30;99.90
20288;DHT22;10303;51.960;8.372;2024-02-26T03:33:04;8.10;99.90
20288;DHT22;10303;51.960;8.372;2024-02-26T03:35:30;8.30;99.90
20288;DHT22;10303;51.960;8.372;2024-02-26T03:37:56;8.40;99.90
20288;DHT22;10303;51.960;8.372;2024-02-26T03:40:22;8.40;99.90
20288;DHT22;10303;51.960;8.372;2024-02-26T03:42:48;8.40;99.90
20288;DHT22;10303;51.960;8.372;2024-02-26T03:45:14;8.40;99.90
20288;DHT22;10303;51.960;8.372;2024-02-26T03:47:39;8.40;99.90
20288;DHT22;10303;51.960;8.372;2024-02-26T03:50:06;8.50;99.90
20288;DHT22;10303;51.960;8.372;2024-02-26T03:52:33;8.40;99.90
20288;DHT22;10303;51.960;8.372;2024-02-26T03:54:59;8.50;99.90
20288;DHT22;10303;51.960;8.372;2024-02-26T03:57:25;8.50;99.90
20288;DHT22;10303;51.960;8.372;2024-02-26T03:59:51;8.50;99.90
20288;DHT22;10303;51.960;8.372;2024-02-26T04:02:17;8.50;99.90
20288;DHT22;10303;51.960;8.372;2024-02-26T04:04:46;8.50;99.90
20288;DHT22;10303;51.960;8.372;2024-02-26T04:07:12;8.50;99.90
20288;DHT22;10303;51.960;8.372;2024-02-26T04:09:38;8.60;99.90
20288;DHT22;10303;51.960;8.372;2024-02-26T04:12:05;8.60;99.90
20288;DHT22;10303;51.960;8.372;2024-02-26T04:14:31;8.60;99.90
20288;DHT22;10303;51.960;8.372;2024-02-26T04:16:57;8.70;99.90
20288;DHT22;10303;51.960;8.372;2024-02-26T04:19:23;8.80;99.90
20288;DHT22;10303;51.960;8.372;2024-02-26T04:21:49;8.70;99.90
20288;DHT22;10303;51.960;8.372;2024-02-26T04:24:15;8.70;99.90
20288;DHT22;10303;51.960;8.372;2024-02-26T04:26:41;8.70;99.90
20288;DHT22;10303;51.960;8.372;2024-02-26T04:29:07;8.70;99.90
20288;DHT22;10303;51.960;8.372;2024-02-26T04:31:33;8.70;99.90
20288;DHT22;10303;51.960;8.372;2024-02-26T04:33:59;8.80;99.90
20288;DHT22;10303;51.960;8.372;2024-02-26T04:36:25;8.80;99.90
20288;DHT22;10303;51.960;8.372;2024-02-26T04:38:51;8.80;99.90
20288;DHT22;10303;51.960;8.372;2024-02-26T04:41:20;8.90;99.90
20288;DHT22;10303;51.960;8.372;2024-02-26T04:43:46;8.90;99.90
20288;DHT22;10303;51.960;8.372;2024-02-26T04:46:11;9.00;99.90
20288;DHT22;10303;51.960;8.372;2024-02-26T04:48:37;8.90;99.90
20288;DHT22;10303;51.960;8.372;2024-02-26T04:51:07;8.90;99.90
20288;DHT22;10303;51.960;8.372;2024-02-26T04:53:33;8.90;99.90
20288;DHT22;10303;51.960;8.372;2024-02-26T04:55:59;8.90;99.90
20288;DHT22;10303;51.960;8.372;2024-02-26T04:58:25;8.90;99.90
20288;DHT22;10303;51.960;8.372;2024-02-26T05:00:51;8.90;99.90
20288;DHT22;10303;51.960;8.372;2024-02-26T05:03:17;9.00;99.90
20288;DHT22;10303;51.960;8.372;2024-02-26T05:05:43;9.00;99.90
20288;DHT22;10303;51.960;8.372;2024-02-26T05:08:09;9.00;99.90
20288;DHT22;10303;51.960;8.372;2024-02-26T05:10:36;9.00;99.90
20288;DHT22;10303;51.960;8.372;2024-02-26T05:13:07;9.00;99.90
20288;DHT22;10303;51.960;8.372;2024-02-26T05:15:33;9.00;99.90
20288;DHT22;10303;51.960;8.372;2024-02-26T05:17:59;9.00;99.90
20288;DHT22;10303;51.960;8.372;2024-02-26T05:20:25;9.00;99.90
20288;DHT22;10303;51.960;8.372;2024-02-26T05:22:51;9.00;99.90
20288;DHT22;10303;51.960;8.372;2024-02-26T05:25:17;9.00;99.90
20288;DHT22;10303;51.960;8.372;2024-02-26T05:27:44;9.00;99.90
20288;DHT22;10303;51.960;8.372;2024-02-26T05:30:10;9.10;99.90
20288;DHT22;10303;51.960;8.372;2024-02-26T05:32:37;9.10;99.90
20288;DHT22;10303;51.960;8.372;2024-02-26T05:35:03;9.10;99.90
20288;DHT22;10303;51.960;8.372;2024-02-26T05:37:30;9.10;99.90
20288;DHT22;10303;51.960;8.372;2024-02-26T05:39:56;9.10;99.90
20288;DHT22;10303;51.960;8.372;2024-02-26T05:42:22;9.10;99.90
20288;DHT22;10303;51.960;8.372;2024-02-26T05:44:48;9.10;99.90
20288;DHT22;10303;51.960;8.372;2024-02-26T05:47:14;9.20;99.90
20288;DHT22;10303;51.960;8.372;2024-02-26T05:49:40;9.10;99.90
20288;DHT22;10303;51.960;8.372;2024-02-26T05:52:06;9.20;99.90
20288;DHT22;10303;51.960;8.372;2024-02-26T05:54:32;9.20;99.90
20288;DHT22;10303;51.960;8.372;2024-02-26T05:56:58;9.20;99.90
20288;DHT22;10303;51.960;8.372;2024-02-26T05:59:24;9.20;99.90
20288;DHT22;10303;51.960;8.372;2024-02-26T06:01:50;9.20;99.90
20288;DHT22;10303;51.960;8.372;2024-02-26T06:04:16;9.20;99.90
20288;DHT22;10303;51.960;8.372;2024-02-26T06:06:44;9.20;99.90
20288;DHT22;10303;51.960;8.372;2024-02-26T06:09:13;9.20;99.90
20288;DHT22;10303;51.960;8.372;2024-02-26T06:11:39;9.20;99.90
20288;DHT22;10303;51.960;8.372;2024-02-26T06:14:05;9.20;99.90
20288;DHT22;10303;51.960;8.372;2024-02-26T06:16:31;9.30;99.90
20288;DHT22;10303;51.960;8.372;2024-02-26T06:18:57;9.20;99.90
20288;DHT22;10303;51.960;8.372;2024-02-26T06:21:23;9.30;99.90
20288;DHT22;10303;51.960;8.372;2024-02-26T06:23:49;9.20;99.90
20288;DHT22;10303;51.960;8.372;2024-02-26T06:26:16;9.20;99.90
20288;DHT22;10303;51.960;8.372;2024-02-26T06:28:42;9.20;99.90
20288;DHT22;10303;51.960;8.372;2024-02-26T06:31:07;9.20;99.90
20288;DHT22;10303;51.960;8.372;2024-02-26T06:33:33;9.20;99.90
20288;DHT22;10303;51.960;8.372;2024-02-26T06:35:59;9.20;99.90
20288;DHT22;10303;51.960;8.372;2024-02-26T06:38:25;9.20;99.90
20288;DHT22;10303;51.960;8.372;2024-02-26T06:40:51;9.20;99.90
20288;DHT22;10303;51.960;8.372;2024-02-26T06:43:17;9.30;99.90
20288;DHT22;10303;51.960;8.372;2024-02-26T06:45:43;9.30;99.90
20288;DHT22;10303;51.960;8.372;2024-02-26T06:48:08;9.30;99.90
20288;DHT22;10303;51.960;8.372;2024-02-26T06:50:34;9.30;99.90
20288;DHT22;10303;51.960;8.372;2024-02-26T06:53:00;9.20;99.90
20288;DHT22;10303;51.960;8.372;2024-02-26T06:55:26;9.30;99.90
20288;DHT22;10303;51.960;8.372;2024-02-26T06:57:52;9.30;99.90
20288;DHT22;10303;51.960;8.372;2024-02-26T07:00:18;9.30;99.90
20288;DHT22;10303;51.960;8.372;2024-02-26T07:02:44;9.30;99.90
20288;DHT22;10303;51.960;8.372;2024-02-26T07:05:10;9.30;99.90
20288;DHT22;10303;51.960;8.372;2024-02-26T07:07:36;9.30;99.90
20288;DHT22;10303;51.960;8.372;2024-02-26T07:10:02;9.40;99.90
20288;DHT22;10303;51.960;8.372;2024-02-26T07:12:30;9.30;99.90
20288;DHT22;10303;51.960;8.372;2024-02-26T07:14:56;9.50;99.90
20288;DHT22;10303;51.960;8.372;2024-02-26T07:17:22;9.40;99.90
20288;DHT22;10303;51.960;8.372;2024-02-26T07:19:48;9.30;99.90
20288;DHT22;10303;51.960;8.372;2024-02-26T07:22:14;9.30;99.90
20288;DHT22;10303;51.960;8.372;2024-02-26T07:24:40;9.40;99.90
20288;DHT22;10303;51.960;8.372;2024-02-26T07:27:06;9.40;99.90
20288;DHT22;10303;51.960;8.372;2024-02-26T07:29:32;9.40;99.90
20288;DHT22;10303;51.960;8.372;2024-02-26T07:31:58;9.40;99.90
20288;DHT22;10303;51.960;8.372;2024-02-26T07:34:25;9.50;99.90
20288;DHT22;10303;51.960;8.372;2024-02-26T07:36:55;9.60;99.90
20288;DHT22;10303;51.960;8.372;2024-02-26T07:39:22;9.40;99.90
20288;DHT22;10303;51.960;8.372;2024-02-26T07:41:48;9.40;99.90
20288;DHT22;10303;51.960;8.372;2024-02-26T07:44:17;9.50;99.90
20288;DHT22;10303;51.960;8.372;2024-02-26T07:46:43;9.50;99.90
20288;DHT22;10303;51.960;8.372;2024-02-26T07:49:09;9.50;99.90
20288;DHT22;10303;51.960;8.372;2024-02-26T07:51:35;9.70;99.90
20288;DHT22;10303;51.960;8.372;2024-02-26T07:54:01;9.50;99.90
20288;DHT22;10303;51.960;8.372;2024-02-26T07:56:27;9.50;99.90
20288;DHT22;10303;51.960;8.372;2024-02-26T07:58:53;9.50;99.90
20288;DHT22;10303;51.960;8.372;2024-02-26T08:01:19;9.60;99.90
20288;DHT22;10303;51.960;8.372;2024-02-26T08:03:45;9.60;99.90
20288;DHT22;10303;51.960;8.372;2024-02-26T08:06:13;9.60;99.90
20288;DHT22;10303;51.960;8.372;2024-02-26T08:08:38;9.60;99.90
20288;DHT22;10303;51.960;8.372;2024-02-26T08:11:04;9.60;99.90
20288;DHT22;10303;51.960;8.372;2024-02-26T08:13:30;9.60;99.90
20288;DHT22;10303;51.960;8.372;2024-02-26T08:15:56;9.70;99.90
20288;DHT22;10303;51.960;8.372;2024-02-26T08:18:22;9.70;99.90
20288;DHT22;10303;51.960;8.372;2024-02-26T08:20:48;9.80;99.90
20288;DHT22;10303;51.960;8.372;2024-02-26T08:23:14;9.80;99.90
20288;DHT22;10303;51.960;8.372;2024-02-26T08:25:40;9.80;99.90
20288;DHT22;10303;51.960;8.372;2024-02-26T08:28:06;9.90;99.90
20288;DHT22;10303;51.960;8.372;2024-02-26T08:30:32;9.90;99.90
20288;DHT22;10303;51.960;8.372;2024-02-26T08:32:59;9.90;99.90
20288;DHT22;10303;51.960;8.372;2024-02-26T08:35:25;10.00;99.90
20288;DHT22;10303;51.960;8.372;2024-02-26T08:37:51;10.00;99.90
20288;DHT22;10303;51.960;8.372;2024-02-26T08:40:17;10.00;99.90
20288;DHT22;10303;51.960;8.372;2024-02-26T08:42:43;10.10;99.90
20288;DHT22;10303;51.960;8.372;2024-02-26T08:45:09;10.20;99.90
20288;DHT22;10303;51.960;8.372;2024-02-26T08:47:35;10.10;99.90
20288;DHT22;10303;51.960;8.372;2024-02-26T08:50:01;10.20;99.90
20288;DHT22;10303;51.960;8.372;2024-02-26T08:52:26;10.20;99.90
20288;DHT22;10303;51.960;8.372;2024-02-26T08:54:52;10.20;99.90
20288;DHT22;10303;51.960;8.372;2024-02-26T08:57:18;10.30;99.90
20288;DHT22;10303;51.960;8.372;2024-02-26T08:59:44;10.50;99.90
20288;DHT22;10303;51.960;8.372;2024-02-26T09:02:10;10.40;99.90
20288;DHT22;10303;51.960;8.372;2024-02-26T09:04:36;10.40;99.90
20288;DHT22;10303;51.960;8.372;2024-02-26T09:07:02;10.40;99.90
20288;DHT22;10303;51.960;8.372;2024-02-26T09:09:28;10.40;99.90
20288;DHT22;10303;51.960;8.372;2024-02-26T09:11:54;10.50;99.90
20288;DHT22;10303;51.960;8.372;2024-02-26T09:14:21;10.60;99.90
20288;DHT22;10303;51.960;8.372;2024-02-26T09:16:47;10.70;99.90
20288;DHT22;10303;51.960;8.372;2024-02-26T09:19:17;10.60;99.90
20288;DHT22;10303;51.960;8.372;2024-02-26T09:21:46;10.60;99.90
20288;DHT22;10303;51.960;8.372;2024-02-26T09:24:12;10.70;99.90
20288;DHT22;10303;51.960;8.372;2024-02-26T09:26:38;10.70;99.90
20288;DHT22;10303;51.960;8.372;2024-02-26T09:29:04;10.90;99.90
20288;DHT22;10303;51.960;8.372;2024-02-26T09:31:31;10.80;99.90
20288;DHT22;10303;51.960;8.372;2024-02-26T09:33:57;10.90;99.90
20288;DHT22;10303;51.960;8.372;2024-02-26T09:36:23;10.90;99.90
20288;DHT22;10303;51.960;8.372;2024-02-26T09:38:49;10.90;99.90
20288;DHT22;10303;51.960;8.372;2024-02-26T09:41:15;11.00;99.90
20288;DHT22;10303;51.960;8.372;2024-02-26T09:43:44;11.00;99.90
20288;DHT22;10303;51.960;8.372;2024-02-26T09:46:11;11.00;99.90
20288;DHT22;10303;51.960;8.372;2024-02-26T09:48:38;11.10;99.90
20288;DHT22;10303;51.960;8.372;2024-02-26T09:51:05;11.10;99.90
20288;DHT22;10303;51.960;8.372;2024-02-26T09:53:31;11.20;99.90
20288;DHT22;10303;51.960;8.372;2024-02-26T09:55:58;11.20;99.90
20288;DHT22;10303;51.960;8.372;2024-02-26T09:58:28;11.20;99.90
20288;DHT22;10303;51.960;8.372;2024-02-26T10:00:57;11.30;99.90
20288;DHT22;10303;51.960;8.372;2024-02-26T10:03:31;11.30;99.90
20288;DHT22;10303;51.960;8.372;2024-02-26T10:06:03;11.30;99.90
20288;DHT22;10303;51.960;8.372;2024-02-26T10:08:31;11.40;99.90
20288;DHT22;10303;51.960;8.372;2024-02-26T10:10:58;11.40;99.90
20288;DHT22;10303;51.960;8.372;2024-02-26T10:13:24;11.50;99.90
20288;DHT22;10303;51.960;8.372;2024-02-26T10:15:50;11.50;99.90
20288;DHT22;10303;51.960;8.372;2024-02-26T10:18:16;11.50;99.90
20288;DHT22;10303;51.960;8.372;2024-02-26T10:20:45;11.60;99.90
20288;DHT22;10303;51.960;8.372;2024-02-26T10:23:26;11.60;99.90
20288;DHT22;10303;51.960;8.372;2024-02-26T10:25:55;11.70;99.90
20288;DHT22;10303;51.960;8.372;2024-02-26T10:28:22;11.70;99.90
20288;DHT22;10303;51.960;8.372;2024-02-26T10:30:48;11.70;99.90
20288;DHT22;10303;51.960;8.372;2024-02-26T10:33:17;11.80;99.90
20288;DHT22;10303;51.960;8.372;2024-02-26T10:35:47;11.80;99.90
20288;DHT22;10303;51.960;8.372;2024-02-26T10:38:13;11.90;99.90
20288;DHT22;10303;51.960;8.372;2024-02-26T10:40:42;11.90;99.90
20288;DHT22;10303;51.960;8.372;2024-02-26T10:43:08;12.00;99.90
20288;DHT22;10303;51.960;8.372;2024-02-26T10:45:34;11.90;99.90
20288;DHT22;10303;51.960;8.372;2024-02-26T10:48:00;12.00;99.90
20288;DHT22;10303;51.960;8.372;2024-02-26T10:50:26;12.00;99.90
20288;DHT22;10303;51.960;8.372;2024-02-26T10:52:53;12.00;99.90
20288;DHT22;10303;51.960;8.372;2024-02-26T10:55:21;12.00;99.90
20288;DHT22;10303;51.960;8.372;2024-02-26T10:57:51;12.00;99.90
20288;DHT22;10303;51.960;8.372;2024-02-26T11:00:18;12.00;99.90
20288;DHT22;10303;51.960;8.372;2024-02-26T11:02:45;12.10;99.90
20288;DHT22;10303;51.960;8.372;2024-02-26T11:05:14;12.10;99.90
20288;DHT22;10303;51.960;8.372;2024-02-26T11:07:41;12.10;99.90
20288;DHT22;10303;51.960;8.372;2024-02-26T11:10:09;12.10;99.90
20288;DHT22;10303;51.960;8.372;2024-02-26T11:12:37;12.10;99.90
20288;DHT22;10303;51.960;8.372;2024-02-26T11:15:05;12.20;99.90
20288;DHT22;10303;51.960;8.372;2024-02-26T11:17:32;12.20;99.90
20288;DHT22;10303;51.960;8.372;2024-02-26T11:20:00;12.20;99.90
20288;DHT22;10303;51.960;8.372;2024-02-26T11:22:28;12.20;99.90
20288;DHT22;10303;51.960;8.372;2024-02-26T11:24:56;12.20;99.90
20288;DHT22;10303;51.960;8.372;2024-02-26T11:27:26;12.10;99.90
20288;DHT22;10303;51.960;8.372;2024-02-26T11:29:57;12.20;99.90
20288;DHT22;10303;51.960;8.372;2024-02-26T11:32:27;12.20;99.90
20288;DHT22;10303;51.960;8.372;2024-02-26T11:34:56;12.20;99.90
20288;DHT22;10303;51.960;8.372;2024-02-26T11:37:23;12.20;99.90
20288;DHT22;10303;51.960;8.372;2024-02-26T11:39:51;12.20;99.90
20288;DHT22;10303;51.960;8.372;2024-02-26T11:42:23;12.20;99.90
20288;DHT22;10303;51.960;8.372;2024-02-26T11:44:54;12.30;99.90
20288;DHT22;10303;51.960;8.372;2024-02-26T11:47:22;12.30;99.90
20288;DHT22;10303;51.960;8.372;2024-02-26T11:49:49;12.30;99.90
20288;DHT22;10303;51.960;8.372;2024-02-26T11:52:15;12.30;99.90
20288;DHT22;10303;51.960;8.372;2024-02-26T11:54:45;12.30;99.90
20288;DHT22;10303;51.960;8.372;2024-02-26T11:59:54;12.40;99.90
20288;DHT22;10303;51.960;8.372;2024-02-26T12:05:10;12.40;99.90
20288;DHT22;10303;51.960;8.372;2024-02-26T12:08:01;12.50;99.90
20288;DHT22;10303;51.960;8.372;2024-02-26T12:10:37;12.50;99.90
20288;DHT22;10303;51.960;8.372;2024-02-26T12:13:10;12.50;99.90
20288;DHT22;10303;51.960;8.372;2024-02-26T12:15:43;12.50;99.90
20288;DHT22;10303;51.960;8.372;2024-02-26T12:18:16;12.50;99.90
20288;DHT22;10303;51.960;8.372;2024-02-26T12:20:44;12.60;99.90
20288;DHT22;10303;51.960;8.372;2024-02-26T12:23:15;12.60;99.90
20288;DHT22;10303;51.960;8.372;2024-02-26T12:25:44;12.60;99.90
20288;DHT22;10303;51.960;8.372;2024-02-26T12:28:14;12.60;99.90
20288;DHT22;10303;51.960;8.372;2024-02-26T12:30:40;12.60;99.90
20288;DHT22;10303;51.960;8.372;2024-02-26T12:33:07;12.60;99.90
20288;DHT22;10303;51.960;8.372;2024-02-26T12:35:35;12.60;99.90
20288;DHT22;10303;51.960;8.372;2024-02-26T12:38:02;12.60;99.90
20288;DHT22;10303;51.960;8.372;2024-02-26T12:40:29;12.70;99.90
20288;DHT22;10303;51.960;8.372;2024-02-26T12:42:56;12.70;99.90
20288;DHT22;10303;51.960;8.372;2024-02-26T12:45:22;12.70;99.90
20288;DHT22;10303;51.960;8.372;2024-02-26T12:47:48;12.70;99.90
20288;DHT22;10303;51.960;8.372;2024-02-26T12:50:17;12.70;99.90
20288;DHT22;10303;51.960;8.372;2024-02-26T12:52:44;12.70;99.90
20288;DHT22;10303;51.960;8.372;2024-02-26T12:55:14;12.70;99.90
20288;DHT22;10303;51.960;8.372;2024-02-26T12:57:43;12.70;99.90
20288;DHT22;10303;51.960;8.372;2024-02-26T13:00:16;12.70;99.90
20288;DHT22;10303;51.960;8.372;2024-02-26T13:02:45;12.70;99.90
20288;DHT22;10303;51.960;8.372;2024-02-26T13:05:14;12.70;99.90
20288;DHT22;10303;51.960;8.372;2024-02-26T13:07:42;12.70;99.90
20288;DHT22;10303;51.960;8.372;2024-02-26T13:10:09;12.80;99.90
20288;DHT22;10303;51.960;8.372;2024-02-26T13:12:44;12.60;99.90
20288;DHT22;10303;51.960;8.372;2024-02-26T13:15:15;12.60;99.90
20288;DHT22;10303;51.960;8.372;2024-02-26T13:17:42;12.60;99.90
20288;DHT22;10303;51.960;8.372;2024-02-26T13:20:09;12.60;99.90
20288;DHT22;10303;51.960;8.372;2024-02-26T13:22:36;12.60;99.90
20288;DHT22;10303;51.960;8.372;2024-02-26T13:25:03;12.60;99.90
20288;DHT22;10303;51.960;8.372;2024-02-26T13:27:29;12.50;99.90
20288;DHT22;10303;51.960;8.372;2024-02-26T13:30:08;12.60;99.90
20288;DHT22;10303;51.960;8.372;2024-02-26T13:32:37;12.50;99.90
20288;DHT22;10303;51.960;8.372;2024-02-26T13:35:11;12.50;99.90
20288;DHT22;10303;51.960;8.372;2024-02-26T13:37:39;12.50;99.90
20288;DHT22;10303;51.960;8.372;2024-02-26T13:42:37;12.40;99.90
20288;DHT22;10303;51.960;8.372;2024-02-26T13:45:04;12.40;99.90
20288;DHT22;10303;51.960;8.372;2024-02-26T13:47:36;12.30;99.90
20288;DHT22;10303;51.960;8.372;2024-02-26T13:50:02;12.30;99.90
20288;DHT22;10303;51.960;8.372;2024-02-26T13:52:28;12.20;99.90
20288;DHT22;10303;51.960;8.372;2024-02-26T13:54:57;12.20;99.90
20288;DHT22;10303;51.960;8.372;2024-02-26T13:57:23;12.10;99.90
20288;DHT22;10303;51.960;8.372;2024-02-26T13:59:49;12.10;99.90
20288;DHT22;10303;51.960;8.372;2024-02-26T14:02:16;12.10;99.90
20288;DHT22;10303;51.960;8.372;2024-02-26T14:04:42;12.20;99.90
20288;DHT22;10303;51.960;8.372;2024-02-26T14:07:09;12.10;99.90
20288;DHT22;10303;51.960;8.372;2024-02-26T14:09:37;12.10;99.90
20288;DHT22;10303;51.960;8.372;2024-02-26T14:12:03;12.10;99.90
20288;DHT22;10303;51.960;8.372;2024-02-26T14:14:30;12.10;99.90
20288;DHT22;10303;51.960;8.372;2024-02-26T14:16:58;12.10;99.90
20288;DHT22;10303;51.960;8.372;2024-02-26T14:19:25;12.10;99.90
20288;DHT22;10303;51.960;8.372;2024-02-26T14:21:52;12.10;99.90
20288;DHT22;10303;51.960;8.372;2024-02-26T14:24:17;12.10;99.90
20288;DHT22;10303;51.960;8.372;2024-02-26T14:26:43;12.10;99.90
20288;DHT22;10303;51.960;8.372;2024-02-26T14:29:09;12.10;99.90
20288;DHT22;10303;51.960;8.372;2024-02-26T14:31:35;12.00;99.90
20288;DHT22;10303;51.960;8.372;2024-02-26T14:34:01;12.00;99.90
20288;DHT22;10303;51.960;8.372;2024-02-26T14:36:27;12.10;99.90
20288;DHT22;10303;51.960;8.372;2024-02-26T14:38:53;12.10;99.90
20288;DHT22;10303;51.960;8.372;2024-02-26T14:41:19;12.10;99.90
20288;DHT22;10303;51.960;8.372;2024-02-26T14:43:45;12.00;99.90
20288;DHT22;10303;51.960;8.372;2024-02-26T14:46:10;12.10;99.90
20288;DHT22;10303;51.960;8.372;2024-02-26T14:48:36;12.00;99.90
20288;DHT22;10303;51.960;8.372;2024-02-26T14:51:03;12.10;99.90
20288;DHT22;10303;51.960;8.372;2024-02-26T14:53:31;12.00;99.90
20288;DHT22;10303;51.960;8.372;2024-02-26T14:55:58;12.10;99.90
20288;DHT22;10303;51.960;8.372;2024-02-26T14:58:23;12.10;99.90
20288;DHT22;10303;51.960;8.372;2024-02-26T15:00:50;12.10;99.90
20288;DHT22;10303;51.960;8.372;2024-02-26T15:03:16;12.10;99.90
20288;DHT22;10303;51.960;8.372;2024-02-26T15:05:43;12.10;99.90
20288;DHT22;10303;51.960;8.372;2024-02-26T15:08:08;12.00;99.90
20288;DHT22;10303;51.960;8.372;2024-02-26T15:10:35;12.10;99.90
20288;DHT22;10303;51.960;8.372;2024-02-26T15:13:01;12.10;99.90
20288;DHT22;10303;51.960;8.372;2024-02-26T15:15:27;12.00;99.90
20288;DHT22;10303;51.960;8.372;2024-02-26T15:17:53;12.10;99.90
20288;DHT22;10303;51.960;8.372;2024-02-26T15:20:19;12.10;99.90
20288;DHT22;10303;51.960;8.372;2024-02-26T15:22:45;12.10;99.90
20288;DHT22;10303;51.960;8.372;2024-02-26T15:25:12;12.20;99.90
20288;DHT22;10303;51.960;8.372;2024-02-26T15:27:38;12.10;99.90
20288;DHT22;10303;51.960;8.372;2024-02-26T15:30:04;12.10;99.90
20288;DHT22;10303;51.960;8.372;2024-02-26T15:32:30;12.10;99.90
20288;DHT22;10303;51.960;8.372;2024-02-26T15:34:56;12.10;99.90
20288;DHT22;10303;51.960;8.372;2024-02-26T15:37:23;12.10;99.90
20288;DHT22;10303;51.960;8.372;2024-02-26T15:39:49;12.10;99.90
20288;DHT22;10303;51.960;8.372;2024-02-26T15:42:16;12.10;99.90
20288;DHT22;10303;51.960;8.372;2024-02-26T15:44:41;12.10;99.90